createdAt,value
2023-03-12T00:00:17.108Z,92626.06
2023-03-12T00:05:20.193Z,92630.31
2023-03-12T00:10:23.262Z,92605.34
2023-03-12T00:15:26.475Z,92604.19
2023-03-12T00:20:29.485Z,92593.00
2023-03-12T00:25:33.315Z,92605.88
2023-03-12T00:30:36.872Z,92583.31
2023-03-12T00:35:40.434Z,92574.88
2023-03-12T00:40:43.860Z,92563.00
2023-03-12T00:45:47.322Z,92561.41
2023-03-12T00:50:50.670Z,92567.16
2023-03-12T00:55:54.145Z,92581.56
2023-03-12T01:00:57.330Z,92575.56
2023-03-12T01:06:01.002Z,92565.47
2023-03-12T01:11:05.007Z,92574.63
2023-03-12T01:16:08.755Z,92593.28
2023-03-12T01:21:13.953Z,92575.28
2023-03-12T01:26:17.666Z,92581.72
2023-03-12T01:31:20.951Z,92579.81
2023-03-12T01:36:31.067Z,92575.38
2023-03-12T01:41:34.403Z,92571.63
2023-03-12T01:46:39.642Z,92558.75
2023-03-12T01:52:04.070Z,92573.16
2023-03-12T01:57:17.419Z,92555.66
2023-03-12T02:02:27.237Z,92549.34
2023-03-12T02:07:30.686Z,92543.44
2023-03-12T02:12:34.383Z,92525.97
2023-03-12T02:17:40.654Z,92541.59
2023-03-12T02:22:50.035Z,92528.28
2023-03-12T02:27:54.020Z,92550.72
2023-03-12T02:33:00.376Z,92568.63
2023-03-12T02:38:32.954Z,92552.97
2023-03-12T02:43:36.169Z,92533.97
2023-03-12T02:48:40.115Z,92546.19
2023-03-12T02:53:43.461Z,92552.50
2023-03-12T02:58:47.125Z,92587.22
2023-03-12T03:03:51.543Z,92587.53
2023-03-12T03:08:54.801Z,92597.41
2023-03-12T03:13:58.718Z,92576.47
2023-03-12T03:19:02.975Z,92535.97
2023-03-12T03:24:06.818Z,92583.97
2023-03-12T03:29:13.397Z,92606.28
2023-03-12T03:34:17.105Z,92553.72
2023-03-12T03:39:20.471Z,92526.63
2023-03-12T03:44:24.311Z,92552.97
2023-03-12T03:49:29.192Z,92594.97
2023-03-12T03:54:34.118Z,92602.03
2023-03-12T03:59:37.520Z,92607.53
2023-03-12T04:04:41.242Z,92619.66
2023-03-12T04:09:45.725Z,92642.03
2023-03-12T04:14:49.288Z,92651.34
2023-03-12T04:19:52.596Z,92646.44
2023-03-12T04:24:57.113Z,92652.00
2023-03-12T04:30:02.855Z,92638.69
2023-03-12T04:35:08.902Z,92662.91
2023-03-12T04:40:12.513Z,92651.19
2023-03-12T04:45:16.186Z,92649.03
2023-03-12T04:50:22.806Z,92638.63
2023-03-12T04:55:25.958Z,92626.47
2023-03-12T05:00:30.153Z,92617.34
2023-03-12T05:05:34.222Z,92626.41
2023-03-12T05:10:38.024Z,92635.63
2023-03-12T05:15:42.154Z,92620.78
2023-03-12T05:20:45.961Z,92661.16
2023-03-12T05:25:49.755Z,92671.16
2023-03-12T05:30:53.076Z,92668.50
2023-03-12T05:35:56.667Z,92697.97
2023-03-12T05:41:00.955Z,92692.13
2023-03-12T05:46:06.751Z,92700.09
2023-03-12T05:51:11.592Z,92721.31
2023-03-12T05:56:18.035Z,92693.81
2023-03-12T06:01:24.504Z,92717.66
2023-03-12T06:06:34.697Z,92709.13
2023-03-12T06:11:38.409Z,92695.63
2023-03-12T06:16:41.736Z,92682.44
2023-03-12T06:21:45.400Z,92704.94
2023-03-12T06:26:49.626Z,92694.00
2023-03-12T06:31:53.681Z,92682.19
2023-03-12T06:36:57.380Z,92691.97
2023-03-12T06:42:01.551Z,92695.06
2023-03-12T06:47:04.884Z,92729.91
2023-03-12T06:52:08.094Z,92713.09
2023-03-12T06:57:11.455Z,92714.06
2023-03-12T07:02:14.992Z,92705.09
2023-03-12T07:07:18.571Z,92718.78
2023-03-12T07:12:21.717Z,92725.28
2023-03-12T07:17:26.079Z,92732.50
2023-03-12T07:22:29.802Z,92746.69
2023-03-12T07:27:33.316Z,92756.44
2023-03-12T07:32:37.149Z,92766.78
2023-03-12T07:37:40.405Z,92766.47
2023-03-12T07:42:44.639Z,92766.72
2023-03-12T07:47:49.556Z,92773.47
2023-03-12T07:52:53.312Z,92766.16
2023-03-12T07:57:58.789Z,92759.06
2023-03-12T08:03:02.242Z,92773.38
2023-03-12T08:08:05.824Z,92779.16
2023-03-12T08:13:09.316Z,92765.38
2023-03-12T08:18:13.738Z,92778.81
2023-03-12T08:23:18.609Z,92791.16
2023-03-12T08:28:24.677Z,92788.94
2023-03-12T08:33:28.201Z,92792.41
2023-03-12T08:38:31.900Z,92807.53
2023-03-12T08:55:12.760Z,92807.38
2023-03-12T09:00:18.249Z,92809.34
2023-03-12T09:05:21.839Z,92798.91
2023-03-12T09:10:30.204Z,92809.13
2023-03-12T09:15:34.694Z,92814.41
2023-03-12T09:20:47.713Z,92821.41
2023-03-12T09:25:53.041Z,92822.38
2023-03-12T09:30:57.058Z,92830.25
2023-03-12T09:36:01.219Z,92836.31
2023-03-12T09:41:06.718Z,92839.59
2023-03-12T09:46:18.325Z,92847.00
2023-03-12T09:51:29.292Z,92843.72
2023-03-12T09:56:34.741Z,92859.47
2023-03-12T10:01:49.405Z,92852.06
2023-03-12T10:07:11.705Z,92860.94
2023-03-12T10:12:38.114Z,92879.28
2023-03-12T10:17:53.161Z,92882.94
2023-03-12T10:23:02.195Z,92876.09
2023-03-12T10:28:13.901Z,92880.63
2023-03-12T10:33:19.100Z,92901.38
2023-03-12T10:38:29.733Z,92895.13
2023-03-12T10:43:35.806Z,92903.06
2023-03-12T10:48:39.548Z,92914.81
2023-03-12T10:53:48.551Z,92921.00
2023-03-12T10:58:54.057Z,92939.34
2023-03-12T11:04:40.874Z,92922.22
2023-03-12T11:09:45.484Z,92920.53
2023-03-12T11:14:48.758Z,92921.97
2023-03-12T11:19:53.502Z,92929.69
2023-03-12T11:25:08.301Z,92924.34
2023-03-12T11:30:16.707Z,92913.72
2023-03-12T11:35:41.922Z,92920.06
2023-03-12T11:41:00.408Z,92914.47
2023-03-12T11:46:06.216Z,92903.72
2023-03-12T11:51:19.618Z,92887.59
2023-03-12T11:56:30.165Z,92886.19
2023-03-12T12:01:51.533Z,92897.38
2023-03-12T12:07:22.943Z,92904.19
2023-03-12T12:12:40.282Z,92906.78
2023-03-12T12:18:02.700Z,92905.88
2023-03-12T12:23:31.104Z,92896.63
2023-03-12T12:29:03.564Z,92912.16
2023-03-12T12:34:25.646Z,92911.50
2023-03-12T12:39:38.222Z,92903.88
2023-03-12T12:44:48.214Z,92921.84
2023-03-12T12:50:01.885Z,92910.09
2023-03-12T12:55:17.294Z,92903.41
2023-03-12T13:00:50.432Z,92898.16
2023-03-12T13:05:53.469Z,92902.28
2023-03-12T13:11:05.837Z,92913.50
2023-03-12T13:16:36.207Z,92905.53
2023-03-12T13:22:12.960Z,92903.28
2023-03-12T13:27:30.163Z,92912.22
2023-03-12T13:32:37.422Z,92911.22
2023-03-12T13:37:52.646Z,92904.28
2023-03-12T13:43:31.329Z,92921.53
2023-03-12T13:48:36.940Z,92921.22
2023-03-12T13:53:40.904Z,92920.19
2023-03-12T13:59:05.449Z,92922.31
2023-03-12T14:04:16.599Z,92933.31
2023-03-12T14:09:24.768Z,92939.16
2023-03-12T14:14:53.347Z,92957.66
2023-03-12T14:20:13.812Z,92972.41
2023-03-12T14:25:26.117Z,92987.22
2023-03-12T14:30:44.297Z,92997.09
2023-03-12T14:35:53.928Z,93005.00
2023-03-12T14:41:06.263Z,93003.34
2023-03-12T14:46:19.659Z,93006.31
2023-03-12T14:51:25.057Z,93010.00
2023-03-12T14:56:30.847Z,93022.28
2023-03-12T15:01:39.790Z,93018.75
2023-03-12T15:06:55.858Z,93034.41
2023-03-12T15:12:09.104Z,93039.28
2023-03-12T15:17:24.526Z,93036.66
2023-03-12T15:22:28.290Z,93043.72
2023-03-12T15:27:34.136Z,93054.25
2023-03-12T15:32:37.822Z,93050.81
2023-03-12T15:37:43.248Z,93071.97
2023-03-12T15:42:48.225Z,93063.88
2023-03-12T15:47:54.612Z,93088.53
2023-03-12T15:53:31.344Z,93096.09
2023-03-12T15:58:41.424Z,93105.41
2023-03-12T16:03:46.122Z,93109.91
2023-03-12T16:08:53.397Z,93126.81
2023-03-12T16:14:22.430Z,93131.47
2023-03-12T16:19:29.671Z,93130.66
2023-03-12T16:24:33.040Z,93151.91
2023-03-12T16:29:38.521Z,93135.94
2023-03-12T16:34:43.184Z,93154.09
2023-03-12T16:39:46.806Z,93172.50
2023-03-12T16:44:49.979Z,93170.56
2023-03-12T16:49:53.103Z,93189.38
2023-03-12T16:54:56.724Z,93173.69
2023-03-12T17:00:02.324Z,93181.09
2023-03-12T17:05:06.703Z,93207.78
2023-03-12T17:10:11.641Z,93219.00
2023-03-12T17:15:17.891Z,93242.94
2023-03-12T17:20:23.543Z,93245.53
2023-03-12T17:25:29.369Z,93253.41
2023-03-12T17:30:34.695Z,93253.34
2023-03-12T17:35:40.106Z,93257.56
2023-03-12T17:40:45.490Z,93264.81
2023-03-12T17:45:49.281Z,93271.84
2023-03-12T17:50:52.444Z,93280.75
2023-03-12T17:55:55.747Z,93277.19
2023-03-12T18:01:01.737Z,93303.00
2023-03-12T18:06:05.161Z,93330.84
2023-03-12T18:11:08.454Z,93319.91
2023-03-12T18:16:11.816Z,93345.09
2023-03-12T18:21:15.367Z,93332.31
2023-03-12T18:26:18.946Z,93351.91
2023-03-12T18:31:23.160Z,93360.16
2023-03-12T18:36:26.378Z,93387.59
2023-03-12T18:41:33.038Z,93383.28
2023-03-12T18:46:36.636Z,93401.66
2023-03-12T18:51:40.312Z,93412.63
2023-03-12T18:56:43.526Z,93409.09
2023-03-12T19:01:46.748Z,93416.91
2023-03-12T19:06:51.912Z,93425.91
2023-03-12T19:11:55.826Z,93431.38
2023-03-12T19:16:59.428Z,93439.97
2023-03-12T19:22:03.877Z,93433.34
2023-03-12T19:27:06.995Z,93448.19
2023-03-12T19:32:11.017Z,93441.53
2023-03-12T19:37:14.239Z,93445.00
2023-03-12T19:42:17.796Z,93454.38
2023-03-12T19:47:22.662Z,93433.25
2023-03-12T19:52:26.210Z,93464.84
2023-03-12T19:57:30.137Z,93469.09
2023-03-12T20:02:33.685Z,93464.03
2023-03-12T20:07:37.132Z,93486.22
2023-03-12T20:12:40.348Z,93483.50
2023-03-12T20:17:43.778Z,93488.19
2023-03-12T20:22:48.404Z,93509.31
2023-03-12T20:27:53.503Z,93499.97
2023-03-12T20:32:58.447Z,93515.19
2023-03-12T20:38:03.383Z,93516.31
2023-03-12T20:43:07.509Z,93485.53
2023-03-12T20:48:12.401Z,93522.91
2023-03-12T20:53:15.604Z,93511.91
2023-03-12T20:58:19.312Z,93520.81
2023-03-12T21:03:23.022Z,93539.97
2023-03-12T21:08:27.014Z,93536.81
2023-03-12T21:13:31.191Z,93549.22
2023-03-12T21:18:35.138Z,93546.88
2023-03-12T21:23:39.708Z,93538.38
2023-03-12T21:28:43.896Z,93563.28
2023-03-12T21:33:47.898Z,93538.38
2023-03-12T21:38:54.108Z,93560.69
2023-03-12T21:44:00.932Z,93576.81
2023-03-12T21:49:05.142Z,93577.53
2023-03-12T21:54:08.921Z,93587.56
2023-03-12T21:59:12.104Z,93571.16
2023-03-12T22:04:15.192Z,93578.41
2023-03-12T22:09:18.932Z,93580.22
2023-03-12T22:14:23.957Z,93574.72
2023-03-12T22:19:27.628Z,93580.44
2023-03-12T22:24:31.335Z,93588.44
2023-03-12T22:29:35.430Z,93563.88
2023-03-12T22:34:39.487Z,93566.16
2023-03-12T22:39:43.525Z,93559.44
2023-03-12T22:44:46.811Z,93567.97
2023-03-12T22:49:50.278Z,93571.34
2023-03-12T22:54:53.795Z,93577.00
2023-03-12T22:59:56.876Z,93576.00
2023-03-12T23:04:59.960Z,93590.63
2023-03-12T23:10:04.697Z,93593.19
2023-03-12T23:15:08.758Z,93576.44
2023-03-12T23:20:13.713Z,93581.53
2023-03-12T23:25:17.393Z,93593.19
2023-03-12T23:30:20.664Z,93586.31
2023-03-12T23:35:23.734Z,93596.84
2023-03-12T23:40:27.407Z,93603.31
2023-03-12T23:45:31.116Z,93614.88
2023-03-12T23:50:35.777Z,93607.59
2023-03-12T23:55:38.786Z,93618.44
